Time;durP1;ratioP1;P1;durP2;ratioP2;P2;SDS_P1;SDS_P2;PMS_P1;PMS_P2;Temp;Humidity;BMP_temperature;BMP_pressure;BME280_temperature;BME280_humidity;BME280_pressure;Samples;Min_cycle;Max_cycle;Signal;HPM_P1;HPM_P2
2023/03/02 00:00:40;;;;;;;2.22;1.60;;;15.90;48.30;;;;;;6245965;22;20011;-72
2023/03/02 00:03:06;;;;;;;1.58;1.33;;;15.90;48.40;;;;;;6255536;22;20008;-73
2023/03/02 00:05:34;;;;;;;2.13;1.30;;;15.90;48.40;;;;;;6245975;22;20007;-73
2023/03/02 00:08:00;;;;;;;2.08;1.20;;;15.90;48.40;;;;;;6255687;22;20082;-73
2023/03/02 00:10:27;;;;;;;1.25;1.00;;;15.90;48.60;;;;;;6255912;22;19996;-73
2023/03/02 00:12:52;;;;;;;1.98;1.40;;;15.90;48.30;;;;;;6255812;22;20488;-73
2023/03/02 00:15:18;;;;;;;1.35;1.10;;;15.90;48.30;;;;;;6254321;23;20000;-72
2023/03/02 00:17:43;;;;;;;1.63;1.30;;;15.80;48.40;;;;;;6255610;22;20000;-72
2023/03/02 00:20:10;;;;;;;1.52;1.23;;;15.90;49.10;;;;;;6255703;22;20431;-73
2023/03/02 00:22:44;;;;;;;1.70;1.00;;;15.80;48.50;;;;;;6245398;22;20007;-73
2023/03/02 00:25:11;;;;;;;2.25;1.23;;;15.80;48.40;;;;;;6255730;22;20003;-73
2023/03/02 00:27:37;;;;;;;1.40;1.30;;;15.80;48.40;;;;;;6255530;22;20000;-72
2023/03/02 00:30:04;;;;;;;1.33;1.15;;;15.80;48.40;;;;;;6243946;23;20382;-72
2023/03/02 00:32:29;;;;;;;1.83;1.65;;;15.80;48.50;;;;;;6255597;22;20053;-72
2023/03/02 00:34:55;;;;;;;1.20;1.10;;;15.80;48.50;;;;;;6255542;22;20031;-72
2023/03/02 00:37:21;;;;;;;1.10;1.00;;;15.80;48.50;;;;;;6255499;22;20016;-73
2023/03/02 00:39:46;;;;;;;1.42;1.05;;;15.80;48.60;;;;;;6255460;22;19996;-72
2023/03/02 00:42:12;;;;;;;1.40;1.30;;;15.80;48.40;;;;;;6255482;22;20419;-72
2023/03/02 00:44:37;;;;;;;1.55;1.30;;;15.80;48.50;;;;;;6255486;22;20067;-72
2023/03/02 00:47:03;;;;;;;1.55;1.35;;;15.80;48.50;;;;;;6255372;22;20000;-72
2023/03/02 00:49:29;;;;;;;1.65;1.25;;;15.80;48.60;;;;;;6255378;22;20436;-72
2023/03/02 00:51:54;;;;;;;1.30;1.05;;;15.80;48.60;;;;;;6255235;22;20075;-73
2023/03/02 00:54:20;;;;;;;1.88;1.25;;;15.80;48.50;;;;;;6255333;22;20297;-72
2023/03/02 00:56:45;;;;;;;1.30;1.20;;;15.80;48.60;;;;;;6255239;22;19999;-72
2023/03/02 00:59:27;;;;;;;1.25;1.10;;;15.80;48.50;;;;;;6255245;22;20030;-72
2023/03/02 01:01:59;;;;;;;1.33;1.23;;;15.70;48.60;;;;;;6245163;22;20086;-72
2023/03/02 01:04:28;;;;;;;1.75;1.23;;;15.70;48.50;;;;;;6255081;22;20047;-72
2023/03/02 01:06:59;;;;;;;1.60;1.50;;;15.70;49.20;;;;;;6255355;22;20358;-72
2023/03/02 01:09:25;;;;;;;;;;;15.70;48.50;;;;;;6245878;22;20331;-73
2023/03/02 01:11:51;;;;;;;1.35;1.25;;;15.70;48.50;;;;;;6244962;22;19903;-72
2023/03/02 01:14:16;;;;;;;1.88;1.38;;;15.70;48.40;;;;;;6255146;22;19996;-72
2023/03/02 01:16:42;;;;;;;1.88;1.70;;;15.70;48.60;;;;;;6255213;22;20000;-73
2023/03/02 01:19:08;;;;;;;1.63;1.10;;;15.70;48.50;;;;;;6255071;22;20053;-72
2023/03/02 01:21:33;;;;;;;2.40;1.90;;;15.70;48.50;;;;;;6255133;22;20069;-72
2023/03/02 01:23:59;;;;;;;1.33;1.10;;;15.70;48.60;;;;;;6245282;22;20520;-73
2023/03/02 01:26:25;;;;;;;1.60;1.20;;;15.70;48.60;;;;;;6255063;22;20362;-72
2023/03/02 01:28:54;;;;;;;1.10;1.00;;;15.70;48.60;;;;;;6254912;22;20011;-73
2023/03/02 01:31:24;;;;;;;1.52;1.42;;;15.60;48.60;;;;;;6254961;22;20489;-72
2023/03/02 01:33:49;;;;;;;1.42;1.17;;;15.70;48.60;;;;;;6254940;22;19996;-72
2023/03/02 01:36:15;;;;;;;1.42;1.30;;;15.60;48.60;;;;;;6254920;22;19999;-72
2023/03/02 01:38:41;;;;;;;1.70;1.60;;;15.60;48.60;;;;;;6254950;22;19996;-72
2023/03/02 01:41:07;;;;;;;1.67;1.20;;;15.60;48.60;;;;;;6254919;22;20007;-72
2023/03/02 01:43:33;;;;;;;1.88;1.73;;;15.60;48.60;;;;;;6254930;22;20034;-72
2023/03/02 01:46:05;;;;;;;1.42;1.33;;;15.60;48.60;;;;;;6254811;22;20046;-72
2023/03/02 01:48:38;;;;;;;2.53;1.38;;;15.60;48.70;;;;;;6254787;22;20008;-72
2023/03/02 01:51:05;;;;;;;1.52;1.40;;;15.60;48.70;;;;;;6254813;22;20000;-72
2023/03/02 01:53:32;;;;;;;2.47;1.67;;;15.60;48.70;;;;;;6254800;22;20000;-72
2023/03/02 01:56:00;;;;;;;1.40;1.30;;;15.60;48.70;;;;;;6254790;22;19999;-73
2023/03/02 01:58:27;;;;;;;2.17;1.63;;;15.60;48.70;;;;;;6254795;22;20054;-72
2023/03/02 02:00:54;;;;;;;2.08;1.58;;;15.60;48.60;;;;;;6254892;22;19992;-73
2023/03/02 02:03:25;;;;;;;1.63;1.25;;;15.60;48.70;;;;;;6254419;22;20023;-72
2023/03/02 02:06:22;;;;;;;1.25;1.15;;;15.60;48.60;;;;;;6254854;22;19999;-73
2023/03/02 02:08:48;;;;;;;1.83;1.60;;;15.60;48.70;;;;;;6254727;22;20343;-73
2023/03/02 02:11:14;;;;;;;1.98;1.77;;;15.50;48.50;;;;;;6254648;22;19996;-72
2023/03/02 02:13:41;;;;;;;1.77;1.60;;;15.50;48.60;;;;;;6254767;22;20449;-72
2023/03/02 02:16:07;;;;;;;1.88;1.48;;;15.50;48.50;;;;;;6254695;22;20115;-73
2023/03/02 02:18:36;;;;;;;1.60;1.50;;;15.50;48.70;;;;;;6254656;22;20005;-73
2023/03/02 02:21:03;;;;;;;2.28;1.80;;;15.50;48.60;;;;;;6254839;22;20051;-72
2023/03/02 02:24:02;;;;;;;1.92;1.45;;;15.50;48.60;;;;;;6254597;22;20019;-72
2023/03/02 02:26:35;;;;;;;1.70;1.40;;;15.50;48.60;;;;;;6254663;22;20024;-72
2023/03/02 02:29:17;;;;;;;2.33;1.58;;;15.50;48.70;;;;;;6254566;22;20316;-72
2023/03/02 02:31:48;;;;;;;2.03;1.60;;;15.50;48.90;;;;;;6244408;22;20071;-72
2023/03/02 02:34:22;;;;;;;;;;;15.50;48.60;;;;;;6255032;22;20427;-73
2023/03/02 02:36:51;;;;;;;1.95;1.60;;;15.50;48.60;;;;;;6254633;23;19900;-73
2023/03/02 02:39:30;;;;;;;2.10;1.73;;;15.40;48.70;;;;;;6254502;22;20042;-73
2023/03/02 02:42:00;;;;;;;2.88;1.77;;;15.40;48.60;;;;;;6254692;22;19992;-72
2023/03/02 02:44:26;;;;;;;;;;;15.40;48.60;;;;;;6255091;22;20389;-72
2023/03/02 02:46:52;;;;;;;2.33;1.63;;;15.40;48.70;;;;;;6254550;23;20013;-72
2023/03/02 02:49:36;;;;;;;2.05;1.42;;;15.40;48.60;;;;;;6254407;22;20327;-72
2023/03/02 02:52:04;;;;;;;3.05;1.80;;;15.40;48.60;;;;;;6254563;22;19999;-73
2023/03/02 02:54:31;;;;;;;1.55;1.45;;;15.40;48.60;;;;;;6244241;22;20000;-72
2023/03/02 02:56:59;;;;;;;1.90;1.70;;;15.40;48.70;;;;;;6254570;22;20007;-72
2023/03/02 02:59:30;;;;;;;2.10;1.90;;;15.40;48.70;;;;;;6244546;22;20075;-73
2023/03/02 03:01:57;;;;;;;2.30;1.67;;;15.30;48.60;;;;;;6254380;22;20019;-72
2023/03/02 03:04:29;;;;;;;2.00;1.80;;;15.40;48.70;;;;;;6254236;22;20043;-72
2023/03/02 03:06:58;;;;;;;1.77;1.67;;;15.40;48.60;;;;;;6254557;22;20447;-73
2023/03/02 03:09:24;;;;;;;2.35;1.90;;;15.30;48.60;;;;;;6244469;22;20079;-73
2023/03/02 03:12:03;;;;;;;2.22;1.80;;;15.30;48.70;;;;;;6254407;22;19996;-72
2023/03/02 03:14:35;;;;;;;1.90;1.60;;;15.30;48.70;;;;;;6255440;22;20004;-72
2023/03/02 03:17:01;;;;;;;2.20;1.83;;;15.30;48.70;;;;;;6244611;23;20584;-72
2023/03/02 03:19:31;;;;;;;2.08;1.58;;;15.30;48.70;;;;;;6256166;22;20066;-72
2023/03/02 03:21:59;;;;;;;2.08;1.88;;;15.30;48.80;;;;;;6256272;22;20011;-73
2023/03/02 03:24:27;;;;;;;1.83;1.60;;;15.30;48.80;;;;;;6256194;22;19996;-72
2023/03/02 03:26:54;;;;;;;2.33;1.83;;;15.30;48.80;;;;;;6256209;22;20119;-72
2023/03/02 03:29:22;;;;;;;2.00;1.80;;;15.30;49.40;;;;;;6255968;22;20122;-72
2023/03/02 03:31:49;;;;;;;2.53;1.88;;;15.30;48.80;;;;;;6256162;22;19993;-72
2023/03/02 03:34:15;;;;;;;1.98;1.58;;;15.20;49.40;;;;;;6256386;22;20447;-72
2023/03/02 03:36:42;;;;;;;2.30;1.80;;;15.20;48.70;;;;;;6256040;22;19992;-72
2023/03/02 03:39:09;;;;;;;3.05;1.90;;;15.20;48.80;;;;;;6256066;22;20027;-72
2023/03/02 03:41:34;;;;;;;2.28;2.00;;;15.20;48.70;;;;;;6256099;22;19992;-73
2023/03/02 03:44:00;;;;;;;2.20;2.00;;;15.20;48.80;;;;;;6256045;22;20000;-72
2023/03/02 03:46:25;;;;;;;2.58;1.80;;;15.20;48.70;;;;;;6246129;22;20423;-72
2023/03/02 03:48:51;;;;;;;2.15;1.95;;;15.20;48.70;;;;;;6255790;22;20011;-72
2023/03/02 03:51:17;;;;;;;2.78;2.00;;;15.20;48.80;;;;;;6256091;22;19996;-72
2023/03/02 03:53:43;;;;;;;3.28;1.73;;;15.20;48.80;;;;;;6256116;22;20011;-72
2023/03/02 03:56:09;;;;;;;2.00;1.75;;;15.20;48.80;;;;;;6246129;22;19993;-72
2023/03/02 03:58:34;;;;;;;2.13;1.92;;;15.10;48.70;;;;;;6255905;22;20009;-72
2023/03/02 04:01:00;;;;;;;2.38;2.17;;;15.20;48.80;;;;;;6255867;22;19992;-72
2023/03/02 04:03:26;;;;;;;3.40;2.10;;;15.10;48.80;;;;;;6255586;22;20019;-72
2023/03/02 04:05:51;;;;;;;1.92;1.63;;;15.10;48.80;;;;;;6255843;22;20073;-72
2023/03/02 04:08:18;;;;;;;1.83;1.70;;;15.10;48.90;;;;;;6255648;22;20008;-72
2023/03/02 04:10:44;;;;;;;2.40;2.20;;;15.10;48.80;;;;;;6256304;22;20289;-73
2023/03/02 04:13:10;;;;;;;2.10;1.90;;;15.10;49.50;;;;;;6245942;22;20000;-72
2023/03/02 04:15:38;;;;;;;2.40;1.90;;;15.10;48.80;;;;;;6245925;22;20030;-72
2023/03/02 04:18:04;;;;;;;3.67;2.38;;;15.10;48.80;;;;;;6255828;22;20020;-72
2023/03/02 04:20:30;;;;;;;2.33;2.13;;;15.10;48.80;;;;;;6255764;22;19997;-72
2023/03/02 04:22:57;;;;;;;2.47;2.05;;;15.10;48.90;;;;;;6255596;22;19992;-72
2023/03/02 04:25:25;;;;;;;2.50;2.30;;;15.00;48.90;;;;;;6255511;22;19996;-72
2023/03/02 04:27:52;;;;;;;2.30;2.00;;;15.00;48.90;;;;;;6245715;22;20059;-72
2023/03/02 04:30:23;;;;;;;2.20;1.95;;;15.00;48.80;;;;;;6245780;22;20000;-72
2023/03/02 04:32:48;;;;;;;;;;;15.00;48.90;;;;;;6246241;22;20004;-74
2023/03/02 04:35:15;;;;;;;2.22;2.03;;;15.00;48.90;;;;;;6245999;22;19899;-72
2023/03/02 04:37:42;;;;;;;2.35;1.95;;;15.00;49.00;;;;;;6245683;22;20020;-72
2023/03/02 04:40:10;;;;;;;1.88;1.77;;;14.90;49.00;;;;;;6245710;22;20008;-73
2023/03/02 04:42:36;;;;;;;2.03;1.92;;;15.00;49.00;;;;;;6245666;22;20393;-72
2023/03/02 04:45:02;;;;;;;2.22;2.03;;;15.00;49.00;;;;;;6245681;22;19996;-73
2023/03/02 04:47:28;;;;;;;2.95;2.38;;;14.90;49.00;;;;;;6245712;22;20000;-74
2023/03/02 04:49:56;;;;;;;2.00;1.80;;;14.90;49.10;;;;;;6245591;22;20062;-74
2023/03/02 04:52:23;;;;;;;2.20;2.00;;;14.90;49.10;;;;;;6245545;22;19993;-72
2023/03/02 04:54:50;;;;;;;2.83;1.95;;;14.90;49.20;;;;;;6255354;22;19996;-72
2023/03/02 04:57:15;;;;;;;2.25;2.05;;;14.90;49.20;;;;;;6255422;22;20035;-72
2023/03/02 04:59:41;;;;;;;3.17;2.63;;;14.90;49.20;;;;;;6255243;22;19992;-72
2023/03/02 05:02:07;;;;;;;2.72;2.00;;;14.90;49.20;;;;;;6253733;23;20030;-74
2023/03/02 05:04:32;;;;;;;2.17;1.98;;;14.90;49.20;;;;;;6253651;23;20008;-72
2023/03/02 05:06:58;;;;;;;2.33;2.13;;;14.70;49.20;;;;;;6255294;22;20027;-74
2023/03/02 05:09:29;;;;;;;2.03;1.83;;;14.90;49.20;;;;;;6255246;22;20004;-73
2023/03/02 05:11:57;;;;;;;2.00;1.80;;;14.90;49.60;;;;;;6255192;22;20102;-72
2023/03/02 05:14:23;;;;;;;2.15;1.90;;;14.90;49.30;;;;;;6255257;22;19997;-72
2023/03/02 05:16:49;;;;;;;2.20;2.00;;;14.80;49.30;;;;;;6255078;22;19996;-72
2023/03/02 05:19:16;;;;;;;2.10;1.90;;;14.80;49.40;;;;;;6245250;22;20458;-71
2023/03/02 05:21:42;;;;;;;2.17;1.90;;;14.80;49.40;;;;;;6245243;22;20008;-73
2023/03/02 05:24:09;;;;;;;2.30;2.10;;;14.80;49.40;;;;;;6244887;22;19997;-74
2023/03/02 05:26:35;;;;;;;2.22;1.98;;;14.80;49.40;;;;;;6254999;22;20466;-72
2023/03/02 05:29:01;;;;;;;2.25;2.03;;;14.80;49.50;;;;;;6254798;22;20004;-72
2023/03/02 05:31:33;;;;;;;2.03;1.83;;;14.80;49.40;;;;;;6254869;22;19996;-72
2023/03/02 05:34:00;;;;;;;1.70;1.60;;;14.80;49.50;;;;;;6254971;22;20000;-72
2023/03/02 05:36:26;;;;;;;1.75;1.65;;;14.80;49.50;;;;;;6244716;22;19999;-72
2023/03/02 05:38:52;;;;;;;2.45;2.00;;;14.80;49.60;;;;;;6244651;22;20067;-72
2023/03/02 05:41:18;;;;;;;1.92;1.83;;;14.80;49.70;;;;;;6245122;22;20030;-72
2023/03/02 05:43:44;;;;;;;1.77;1.67;;;14.80;49.70;;;;;;6245141;22;20003;-72
2023/03/02 05:46:10;;;;;;;2.75;2.50;;;14.80;49.70;;;;;;6245006;22;20003;-72
2023/03/02 05:48:37;;;;;;;2.78;2.58;;;14.80;50.40;;;;;;6244918;22;20008;-72
2023/03/02 05:51:03;;;;;;;2.58;2.38;;;14.80;49.70;;;;;;6244980;22;20012;-72
2023/03/02 05:53:28;;;;;;;3.83;3.35;;;14.80;49.80;;;;;;6244893;22;19996;-72
2023/03/02 05:55:54;;;;;;;4.47;4.18;;;14.80;49.90;;;;;;6254787;22;20058;-72
2023/03/02 05:58:20;;;;;;;5.20;4.85;;;14.80;49.90;;;;;;6254915;22;20004;-73
2023/03/02 06:00:47;;;;;;;6.53;6.00;;;14.80;50.00;;;;;;6254980;22;19992;-72
2023/03/02 06:03:12;;;;;;;8.15;7.55;;;14.80;50.00;;;;;;6254407;22;20008;-72
2023/03/02 06:05:38;;;;;;;11.48;10.60;;;14.80;50.10;;;;;;6254742;22;20034;-72
2023/03/02 06:08:05;;;;;;;13.98;12.88;;;14.80;50.10;;;;;;6254530;22;20335;-72
2023/03/02 06:10:31;;;;;;;15.25;14.05;;;14.80;50.30;;;;;;6254634;23;20059;-72
2023/03/02 06:12:57;;;;;;;18.60;17.02;;;14.70;50.10;;;;;;6254704;22;20003;-72
2023/03/02 06:15:22;;;;;;;18.77;17.27;;;14.70;50.20;;;;;;6254562;23;19996;-72
2023/03/02 06:17:48;;;;;;;21.70;19.95;;;14.70;50.20;;;;;;6254662;23;19996;-72
2023/03/02 06:20:14;;;;;;;24.13;22.17;;;14.70;50.40;;;;;;6254653;23;19997;-72
2023/03/02 06:22:45;;;;;;;25.08;23.02;;;14.70;50.30;;;;;;6244727;22;20004;-72
2023/03/02 06:25:14;;;;;;;27.52;25.30;;;14.70;50.30;;;;;;6244357;22;19996;-72
2023/03/02 06:27:41;;;;;;;29.77;27.33;;;14.70;50.30;;;;;;6254481;22;20000;-72
2023/03/02 06:30:11;;;;;;;31.75;29.15;;;14.70;50.30;;;;;;6254522;22;20075;-72
2023/03/02 06:32:37;;;;;;;31.00;28.48;;;14.70;50.40;;;;;;6254423;22;20024;-72
2023/03/02 06:35:04;;;;;;;29.70;27.30;;;14.70;50.30;;;;;;6254545;23;20040;-72
2023/03/02 06:37:30;;;;;;;30.83;28.27;;;14.70;50.20;;;;;;6254601;22;20332;-72
2023/03/02 06:39:56;;;;;;;28.50;26.15;;;14.70;50.30;;;;;;6254617;22;19996;-72
2023/03/02 06:42:26;;;;;;;29.88;27.38;;;14.70;50.30;;;;;;6254399;22;19996;-71
2023/03/02 06:44:53;;;;;;;28.42;26.02;;;14.70;50.40;;;;;;6254592;22;20004;-72
2023/03/02 06:47:20;;;;;;;27.65;25.30;;;14.70;50.30;;;;;;6244640;22;20043;-72
2023/03/02 06:49:46;;;;;;;25.52;23.45;;;14.70;51.00;;;;;;6256468;22;20019;-73
2023/03/02 06:52:13;;;;;;;27.15;24.88;;;14.90;50.40;;;;;;6256513;22;19997;-72
2023/03/02 06:54:39;;;;;;;25.33;23.23;;;14.70;50.30;;;;;;6256457;22;20439;-72
2023/03/02 06:57:04;;;;;;;24.30;22.30;;;14.70;50.40;;;;;;6256625;22;20002;-72
2023/03/02 06:59:30;;;;;;;24.75;22.73;;;14.70;50.30;;;;;;6256562;22;20305;-73
2023/03/02 07:01:56;;;;;;;22.95;21.05;;;14.70;50.40;;;;;;6256315;23;20456;-72
2023/03/02 07:04:21;;;;;;;22.15;20.25;;;14.50;50.20;;;;;;6256044;23;20062;-72
2023/03/02 07:06:47;;;;;;;21.95;20.05;;;14.70;50.30;;;;;;6246548;23;20391;-72
2023/03/02 07:09:13;;;;;;;20.23;18.52;;;14.70;50.20;;;;;;6246400;22;20039;-72
2023/03/02 07:11:40;;;;;;;19.20;17.60;;;14.70;51.00;;;;;;6246353;23;20000;-72
2023/03/02 07:14:06;;;;;;;17.90;16.50;;;14.70;50.20;;;;;;6246201;22;20485;-73
2023/03/02 07:16:33;;;;;;;17.83;16.33;;;14.70;50.20;;;;;;6246062;22;19992;-73
2023/03/02 07:19:00;;;;;;;17.35;15.95;;;14.70;50.20;;;;;;6246480;22;20007;-75
2023/03/02 07:21:26;;;;;;;17.02;15.63;;;14.80;50.90;;;;;;6246309;23;20080;-73
2023/03/02 07:23:52;;;;;;;15.88;14.57;;;14.70;50.30;;;;;;6246407;23;20254;-74
2023/03/02 07:26:18;;;;;;;15.73;14.43;;;14.70;50.20;;;;;;6245948;23;20050;-73
2023/03/02 07:28:44;;;;;;;14.60;13.40;;;14.70;50.20;;;;;;6246093;23;20008;-74
2023/03/02 07:31:11;;;;;;;14.60;13.32;;;14.70;50.20;;;;;;6245848;23;20082;-75
2023/03/02 07:33:38;;;;;;;14.00;12.80;;;14.70;50.20;;;;;;6246359;22;20011;-76
2023/03/02 07:36:06;;;;;;;13.65;12.45;;;14.70;50.90;;;;;;6256119;22;20000;-76
2023/03/02 07:38:32;;;;;;;13.05;11.75;;;14.70;50.30;;;;;;6256050;22;19996;-77
2023/03/02 07:40:58;;;;;;;12.63;11.38;;;14.80;50.40;;;;;;6256098;22;19996;-77
2023/03/02 07:43:25;;;;;;;12.55;11.35;;;14.70;50.30;;;;;;6246136;23;20000;-75
2023/03/02 07:45:51;;;;;;;10.77;9.88;;;14.70;50.30;;;;;;6246081;22;19996;-76
2023/03/02 07:48:17;;;;;;;10.23;9.43;;;14.70;50.30;;;;;;6255877;22;20015;-77
2023/03/02 07:50:43;;;;;;;10.57;9.68;;;14.70;50.30;;;;;;6255991;22;19996;-75
2023/03/02 07:53:09;;;;;;;9.57;8.85;;;14.70;50.80;;;;;;6255981;22;20023;-77
2023/03/02 07:55:34;;;;;;;9.40;8.60;;;14.70;50.80;;;;;;6255840;22;19993;-76
2023/03/02 07:58:00;;;;;;;10.13;9.23;;;14.70;50.20;;;;;;6245951;22;20000;-75
2023/03/02 08:00:26;;;;;;;10.23;9.20;;;14.70;50.00;;;;;;6255454;22;19996;-76
2023/03/02 08:02:51;;;;;;;9.90;9.00;;;14.70;49.90;;;;;;6255573;22;20065;-76
2023/03/02 08:05:17;;;;;;;8.75;7.85;;;14.70;50.00;;;;;;6255503;22;20008;-75
2023/03/02 08:07:44;;;;;;;9.65;8.05;;;14.70;50.00;;;;;;6255508;22;20050;-76
2023/03/02 08:10:10;;;;;;;8.32;7.47;;;14.70;50.00;;;;;;6246043;22;20008;-76
2023/03/02 08:12:36;;;;;;;8.25;7.45;;;14.70;49.90;;;;;;6245424;22;20411;-76
2023/03/02 08:15:03;;;;;;;7.25;6.50;;;14.70;49.90;;;;;;6245461;22;20063;-76
2023/03/02 08:17:29;;;;;;;7.68;6.68;;;14.70;49.90;;;;;;6245770;22;20003;-75
2023/03/02 08:19:55;;;;;;;6.50;5.90;;;14.70;50.60;;;;;;6245831;22;20023;-76
2023/03/02 08:22:21;;;;;;;6.30;5.30;;;14.70;50.00;;;;;;6245442;22;20000;-76
2023/03/02 08:24:47;;;;;;;6.40;5.53;;;14.60;50.10;;;;;;6245701;22;20050;-76
2023/03/02 08:27:14;;;;;;;6.28;5.68;;;14.60;50.10;;;;;;6245317;22;20071;-76
2023/03/02 08:29:40;;;;;;;7.03;5.55;;;14.60;50.10;;;;;;6245596;22;20004;-76
2023/03/02 08:32:07;;;;;;;5.43;4.68;;;14.60;50.20;;;;;;6245339;22;20024;-76
2023/03/02 08:34:33;;;;;;;6.20;4.93;;;14.60;50.30;;;;;;6245672;22;20035;-76
2023/03/02 08:36:59;;;;;;;6.43;4.85;;;14.60;50.40;;;;;;6245695;22;20050;-76
2023/03/02 08:39:29;;;;;;;5.72;4.85;;;14.60;50.50;;;;;;6245755;22;20379;-76
2023/03/02 08:41:55;;;;;;;7.60;5.53;;;14.60;50.40;;;;;;6245549;22;19996;-76
2023/03/02 08:44:21;;;;;;;6.97;4.97;;;14.60;50.60;;;;;;6245493;22;20003;-76
2023/03/02 08:46:48;;;;;;;4.95;4.25;;;14.60;50.60;;;;;;6245295;22;20000;-76
2023/03/02 08:49:15;;;;;;;7.40;5.70;;;14.60;50.70;;;;;;6245488;22;20012;-76
2023/03/02 08:51:42;;;;;;;6.80;6.10;;;14.60;50.50;;;;;;6245198;22;20423;-76
2023/03/02 08:54:09;;;;;;;6.68;5.65;;;14.60;50.30;;;;;;6245165;22;20000;-76
2023/03/02 08:56:38;;;;;;;7.40;6.30;;;14.60;50.50;;;;;;6255300;22;19996;-76
2023/03/02 08:59:06;;;;;;;6.78;5.45;;;14.60;50.50;;;;;;6245078;22;20431;-76
2023/03/02 09:01:34;;;;;;;7.28;5.53;;;14.60;50.60;;;;;;6245384;22;20004;-75
2023/03/02 09:04:02;;;;;;;7.40;5.88;;;14.60;50.50;;;;;;6255209;22;20015;-76
2023/03/02 09:06:29;;;;;;;8.05;5.70;;;14.60;50.50;;;;;;6245004;22;20428;-76
2023/03/02 09:08:55;;;;;;;8.10;5.93;;;14.60;50.50;;;;;;6255059;22;20015;-76
2023/03/02 09:11:20;;;;;;;6.68;4.90;;;14.60;51.00;;;;;;6254710;22;20072;-76
2023/03/02 09:13:46;;;;;;;6.25;4.75;;;14.70;50.60;;;;;;6255033;22;20462;-76
2023/03/02 09:16:13;;;;;;;4.38;3.95;;;14.70;50.50;;;;;;6254916;22;20067;-75
2023/03/02 09:18:38;;;;;;;5.43;4.13;;;14.70;50.60;;;;;;6254974;22;20316;-75
2023/03/02 09:21:04;;;;;;;5.40;4.30;;;14.70;50.70;;;;;;6254818;22;20091;-75
2023/03/02 09:23:31;;;;;;;4.50;4.10;;;14.80;50.60;;;;;;6254951;22;20003;-76
2023/03/02 09:25:56;;;;;;;4.43;4.03;;;14.80;50.60;;;;;;6254869;22;20004;-76
2023/03/02 09:28:23;;;;;;;5.93;4.88;;;14.80;50.50;;;;;;6254755;22;20015;-76
2023/03/02 09:30:50;;;;;;;5.75;5.03;;;14.90;50.40;;;;;;6254677;22;20331;-78
2023/03/02 09:33:16;;;;;;;6.60;5.30;;;14.90;50.40;;;;;;6254681;22;20363;-75
2023/03/02 09:35:42;;;;;;;6.00;4.93;;;14.90;50.30;;;;;;6255061;22;20042;-77
2023/03/02 09:38:11;;;;;;;5.22;4.60;;;14.90;50.20;;;;;;6254991;22;19996;-75
2023/03/02 09:40:46;;;;;;;6.23;4.77;;;15.00;50.40;;;;;;6250633;22;20004;-75
2023/03/02 09:43:27;;;;;;;10.40;5.22;;;15.00;50.20;;;;;;6255985;22;19993;-77
2023/03/02 09:46:13;;;;;;;6.90;4.80;;;15.00;50.20;;;;;;6254654;22;20000;-76
2023/03/02 09:49:05;;;;;;;6.38;4.90;;;15.10;50.30;;;;;;6254634;22;20004;-73
2023/03/02 09:51:45;;;;;;;8.13;4.72;;;15.10;50.30;;;;;;6244949;22;20406;-75
2023/03/02 09:54:17;;;;;;;8.15;5.10;;;15.20;50.20;;;;;;6244713;22;20003;-76
2023/03/02 09:56:46;;;;;;;5.63;4.85;;;15.20;50.10;;;;;;6254447;22;20007;-77
2023/03/02 09:59:19;;;;;;;6.47;5.18;;;15.20;50.00;;;;;;6244754;22;20062;-76
2023/03/02 10:02:10;;;;;;;5.95;5.10;;;15.30;50.00;;;;;;6240310;23;20000;-75
2023/03/02 10:17:40;;;;;;;4.43;3.22;;;15.60;50.00;;;;;;6252986;23;20011;-74
